Time;durP1;ratioP1;P1;durP2;ratioP2;P2;SDS_P1;SDS_P2;PMS_P1;PMS_P2;Temp;Humidity;BMP_temperature;BMP_pressure;BME280_temperature;BME280_humidity;BME280_pressure;Samples;Min_cycle;Max_cycle;Signal;HPM_P1;HPM_P2
2023/06/16 00:01:41;;;;;;;6.43;4.37;;;17.90;99.90;;;;;;5014633;28;20249;-50
2023/06/16 00:04:08;;;;;;;5.50;4.50;;;18.00;99.90;;;;;;5014767;28;20246;-50
2023/06/16 00:06:34;;;;;;;9.50;5.10;;;18.10;99.90;;;;;;5014567;28;20188;-50
2023/06/16 00:09:00;;;;;;;5.80;4.60;;;18.00;99.90;;;;;;5014292;28;20418;-50
2023/06/16 00:11:29;;;;;;;4.83;4.30;;;18.00;99.90;;;;;;5014571;28;20187;-50
2023/06/16 00:13:56;;;;;;;6.37;4.67;;;18.10;99.90;;;;;;5014249;28;20529;-51
2023/06/16 00:16:23;;;;;;;5.50;4.57;;;18.10;99.90;;;;;;5013912;28;20773;-50
2023/06/16 00:18:54;;;;;;;7.17;4.23;;;18.20;99.90;;;;;;5014391;28;20469;-50
2023/06/16 00:21:25;;;;;;;7.43;4.53;;;18.20;99.90;;;;;;5013710;28;20887;-51
2023/06/16 00:23:51;;;;;;;7.63;4.80;;;18.30;99.90;;;;;;5013982;28;20907;-50
2023/06/16 00:26:17;;;;;;;5.80;4.87;;;18.30;99.90;;;;;;5014477;28;20517;-50
2023/06/16 00:28:43;;;;;;;5.97;4.90;;;18.30;99.90;;;;;;5014400;28;20513;-50
2023/06/16 00:31:08;;;;;;;6.97;4.87;;;18.30;99.90;;;;;;5014028;28;20211;-50
2023/06/16 00:33:34;;;;;;;9.20;4.73;;;18.30;99.90;;;;;;5014459;28;20218;-50
2023/06/16 00:36:00;;;;;;;5.20;4.63;;;18.30;99.90;;;;;;5014109;28;20191;-49
2023/06/16 00:38:25;;;;;;;6.03;4.70;;;18.20;99.90;;;;;;5013922;28;20221;-51
2023/06/16 00:40:51;;;;;;;5.33;4.73;;;18.10;99.90;;;;;;5014014;28;20183;-51
2023/06/16 00:43:16;;;;;;;5.30;4.73;;;18.10;99.90;;;;;;5013913;28;20219;-50
2023/06/16 00:45:42;;;;;;;7.90;4.90;;;18.20;99.90;;;;;;5014048;28;20279;-50
2023/06/16 00:48:08;;;;;;;5.10;4.40;;;18.20;99.90;;;;;;5013967;28;20696;-50
2023/06/16 00:50:33;;;;;;;8.50;5.00;;;18.20;99.90;;;;;;5014203;28;20657;-51
2023/06/16 00:53:00;;;;;;;6.30;4.87;;;18.20;99.90;;;;;;5013633;28;20235;-50
2023/06/16 00:55:26;;;;;;;9.53;5.30;;;18.20;99.90;;;;;;5014072;28;20241;-51
2023/06/16 00:57:55;;;;;;;5.43;4.90;;;18.20;99.90;;;;;;5013853;28;20438;-49
2023/06/16 01:00:21;;;;;;;7.27;4.90;;;18.30;99.90;;;;;;5013668;28;20422;-50
2023/06/16 01:02:47;;;;;;;5.30;4.07;;;18.30;99.90;;;;;;5013614;28;20418;-50
2023/06/16 01:05:16;;;;;;;5.63;4.50;;;18.30;99.90;;;;;;5013628;28;20553;-49
2023/06/16 01:07:47;;;;;;;6.63;4.97;;;18.30;99.90;;;;;;5013884;28;20183;-50
2023/06/16 01:10:54;;;;;;;10.40;5.10;;;18.30;99.90;;;;;;5013804;28;20449;-49
2023/06/16 01:13:44;;;;;;;6.00;4.50;;;18.20;99.90;;;;;;5013651;28;20416;-50
2023/06/16 01:16:11;;;;;;;7.20;5.07;;;18.20;99.90;;;;;;5013838;28;20463;-50
2023/06/16 01:18:39;;;;;;;5.07;4.43;;;18.30;99.90;;;;;;5013637;28;20419;-51
2023/06/16 01:21:38;;;;;;;5.83;4.87;;;18.30;99.90;;;;;;5013464;28;20425;-50
2023/06/16 01:24:16;;;;;;;8.03;5.73;;;18.20;99.90;;;;;;5012958;28;20470;-49
2023/06/16 01:26:49;;;;;;;7.80;4.70;;;18.20;99.90;;;;;;5013513;28;20426;-48
2023/06/16 01:29:27;;;;;;;;;;;;;;;;;;;;;
2023/06/16 01:31:54;;;;;;;5.00;4.50;;;18.20;99.90;;;;;;5013842;28;20424;-51
2023/06/16 01:34:20;;;;;;;5.80;5.00;;;18.20;99.90;;;;;;5017278;28;20484;-49
2023/06/16 01:36:46;;;;;;;7.10;5.07;;;18.20;99.90;;;;;;5017653;28;20484;-51
2023/06/16 01:39:14;;;;;;;6.90;5.00;;;18.20;99.90;;;;;;5017091;28;20925;-50
2023/06/16 01:41:41;;;;;;;5.80;5.30;;;18.20;99.90;;;;;;5016863;28;20780;-50
2023/06/16 01:44:07;;;;;;;7.03;5.00;;;18.20;99.90;;;;;;5017048;28;20473;-50
2023/06/16 01:46:34;;;;;;;6.73;4.90;;;18.20;99.90;;;;;;5017102;28;20419;-50
2023/06/16 01:49:01;;;;;;;10.70;5.53;;;18.20;99.90;;;;;;5017303;28;20422;-50
2023/06/16 01:51:26;;;;;;;8.67;5.23;;;18.10;99.90;;;;;;5017274;28;20516;-50
2023/06/16 01:53:53;;;;;;;7.70;5.80;;;18.10;99.90;;;;;;5017326;28;20513;-51
2023/06/16 01:56:19;;;;;;;9.47;7.10;;;18.10;99.90;;;;;;5016660;28;20582;-50
2023/06/16 01:58:45;;;;;;;23.30;15.07;;;18.10;99.90;;;;;;5017110;28;20424;-50
2023/06/16 02:01:18;;;;;;;18.83;11.73;;;18.10;99.90;;;;;;5017116;28;20430;-51
2023/06/16 02:03:58;;;;;;;8.03;6.63;;;18.10;99.90;;;;;;5016972;28;20487;-51
2023/06/16 02:06:49;;;;;;;8.93;6.60;;;17.90;99.90;;;;;;5017036;28;20413;-50
2023/06/16 02:09:16;;;;;;;11.80;6.90;;;17.60;99.90;;;;;;5016830;28;20414;-50
2023/06/16 02:11:43;;;;;;;8.40;6.50;;;17.40;99.90;;;;;;5016982;28;20410;-51
2023/06/16 02:14:09;;;;;;;10.23;6.20;;;17.10;99.90;;;;;;5016593;28;20477;-50
2023/06/16 02:16:37;;;;;;;7.30;6.30;;;17.00;99.90;;;;;;5016719;28;20425;-50
2023/06/16 02:19:03;;;;;;;10.93;7.10;;;17.10;99.90;;;;;;5016265;28;20422;-50
2023/06/16 02:21:28;;;;;;;6.77;6.17;;;17.20;99.90;;;;;;5016404;28;20426;-49
2023/06/16 02:23:54;;;;;;;9.17;6.17;;;17.30;99.90;;;;;;5016779;28;20723;-50
2023/06/16 02:26:21;;;;;;;6.97;6.27;;;17.40;99.90;;;;;;5016197;28;20187;-50
2023/06/16 02:28:48;;;;;;;6.60;5.90;;;17.40;99.90;;;;;;5016438;28;20623;-51
2023/06/16 02:31:17;;;;;;;8.40;7.10;;;17.40;99.90;;;;;;5016683;28;20509;-51
2023/06/16 02:33:44;;;;;;;13.40;6.90;;;17.50;99.90;;;;;;5016206;28;20871;-51
2023/06/16 02:36:10;;;;;;;7.87;6.87;;;17.40;99.90;;;;;;5015977;28;20926;-50
2023/06/16 02:38:35;;;;;;;10.20;7.50;;;17.20;99.90;;;;;;5016435;28;20475;-51
2023/06/16 02:41:01;;;;;;;9.47;7.30;;;17.10;99.90;;;;;;5016199;28;20233;-51
2023/06/16 02:43:26;;;;;;;8.33;6.23;;;17.00;99.90;;;;;;5015976;28;20215;-50
2023/06/16 02:45:52;;;;;;;11.37;7.20;;;16.90;99.90;;;;;;5015094;28;20639;-49
2023/06/16 02:48:17;;;;;;;7.43;6.53;;;16.90;99.90;;;;;;5016161;28;20187;-50
2023/06/16 02:50:43;;;;;;;8.80;7.87;;;16.70;99.90;;;;;;5015970;28;20611;-51
2023/06/16 02:53:08;;;;;;;9.83;7.43;;;16.70;99.90;;;;;;5015371;28;20235;-51
2023/06/16 02:55:35;;;;;;;10.63;7.20;;;16.70;99.90;;;;;;5016204;28;20179;-50
2023/06/16 02:58:01;;;;;;;7.73;6.10;;;16.70;99.90;;;;;;5015701;28;20194;-52
2023/06/16 03:00:27;;;;;;;11.60;6.50;;;16.80;99.90;;;;;;5015882;28;20437;-51
2023/06/16 03:02:53;;;;;;;8.30;6.30;;;16.90;99.90;;;;;;5015864;28;20414;-51
2023/06/16 03:05:18;;;;;;;7.97;7.17;;;17.10;99.90;;;;;;5015840;28;20724;-50
2023/06/16 03:07:44;;;;;;;9.23;6.37;;;17.20;99.90;;;;;;5015500;28;20180;-51
2023/06/16 03:10:11;;;;;;;8.23;6.07;;;17.30;99.90;;;;;;5015386;28;20186;-50
2023/06/16 03:12:37;;;;;;;7.33;6.33;;;17.40;99.90;;;;;;5015561;28;20526;-51
2023/06/16 03:15:03;;;;;;;7.90;6.47;;;17.40;99.90;;;;;;5015648;28;20501;-51
2023/06/16 03:17:29;;;;;;;9.67;7.00;;;17.30;99.90;;;;;;5015691;28;20297;-51
2023/06/16 03:19:54;;;;;;;7.73;6.87;;;17.30;99.90;;;;;;5015588;28;21002;-51
2023/06/16 03:22:20;;;;;;;8.30;6.43;;;17.20;99.90;;;;;;5015248;28;20187;-50
2023/06/16 03:24:46;;;;;;;8.83;6.23;;;17.00;99.90;;;;;;5015178;28;20306;-50
2023/06/16 03:27:11;;;;;;;8.20;7.00;;;17.00;99.90;;;;;;5015488;28;20191;-49
2023/06/16 03:29:37;;;;;;;9.83;7.00;;;17.20;99.90;;;;;;5015419;28;20523;-51
2023/06/16 03:32:06;;;;;;;7.40;6.70;;;17.30;99.90;;;;;;5014941;28;20202;-50
2023/06/16 03:34:31;;;;;;;12.10;6.87;;;17.50;99.90;;;;;;5014980;28;20195;-50
2023/06/16 03:36:58;;;;;;;13.10;7.47;;;17.40;99.90;;;;;;5015339;28;20418;-51
2023/06/16 03:39:24;;;;;;;8.83;7.73;;;17.30;99.90;;;;;;5014901;28;20224;-51
2023/06/16 03:41:50;;;;;;;16.70;7.80;;;17.20;99.90;;;;;;5015220;28;20497;-52
2023/06/16 03:44:16;;;;;;;11.00;8.13;;;17.10;99.90;;;;;;5015192;28;20595;-51
2023/06/16 03:46:41;;;;;;;14.90;8.37;;;17.00;99.90;;;;;;5014707;28;20649;-51
2023/06/16 03:49:10;;;;;;;9.03;7.67;;;16.90;99.90;;;;;;5014626;28;20187;-51
2023/06/16 03:51:37;;;;;;;8.93;6.70;;;16.90;99.90;;;;;;5014955;28;20179;-51
2023/06/16 03:54:03;;;;;;;13.23;8.00;;;16.90;99.90;;;;;;5014355;28;20506;-50
2023/06/16 03:56:28;;;;;;;8.43;7.37;;;16.80;99.90;;;;;;5013589;28;20456;-49
2023/06/16 03:58:55;;;;;;;9.87;8.10;;;16.80;99.90;;;;;;5014640;28;20186;-50
2023/06/16 04:01:22;;;;;;;10.10;9.00;;;16.80;99.90;;;;;;5015065;28;20187;-52
2023/06/16 04:03:49;;;;;;;10.23;8.50;;;16.60;99.90;;;;;;5014264;28;20481;-50
2023/06/16 04:06:15;;;;;;;9.77;8.77;;;16.50;99.90;;;;;;5014698;28;20421;-50
2023/06/16 04:08:41;;;;;;;10.60;8.30;;;16.50;99.90;;;;;;5014644;28;20422;-52
2023/06/16 04:11:06;;;;;;;12.63;9.50;;;16.60;1.00;;;;;;5014299;28;20981;-51
2023/06/16 04:13:32;;;;;;;10.77;8.30;;;16.60;1.00;;;;;;5014734;28;20284;-49
2023/06/16 04:15:57;;;;;;;9.33;8.20;;;16.70;1.00;;;;;;5014354;28;20191;-51
2023/06/16 04:18:23;;;;;;;12.10;8.93;;;16.80;1.00;;;;;;5014499;28;20195;-51
2023/06/16 04:20:48;;;;;;;9.30;8.40;;;17.00;1.00;;;;;;5014175;28;20574;-52
2023/06/16 04:23:14;;;;;;;14.07;9.33;;;17.00;1.00;;;;;;5014618;28;20179;-50
2023/06/16 04:25:40;;;;;;;11.00;8.33;;;17.00;1.00;;;;;;5014246;28;20305;-50
2023/06/16 04:28:07;;;;;;;17.03;10.30;;;16.90;1.00;;;;;;5013916;28;20524;-50
2023/06/16 04:30:33;;;;;;;12.03;10.73;;;16.90;1.00;;;;;;5014435;28;20504;-49
2023/06/16 04:33:01;;;;;;;21.87;12.90;;;16.80;1.00;;;;;;5014350;28;20470;-51
2023/06/16 04:35:31;;;;;;;14.60;10.77;;;16.70;1.00;;;;;;5014298;28;20913;-49
2023/06/16 04:37:57;;;;;;;15.17;13.10;;;16.60;1.00;;;;;;5013921;28;20898;-51
2023/06/16 04:40:26;;;;;;;15.20;11.27;;;16.50;1.00;;;;;;5013906;28;20425;-50
2023/06/16 04:42:52;;;;;;;13.70;11.70;;;16.30;1.00;;;;;;5013775;28;20413;-50
2023/06/16 04:45:19;;;;;;;19.40;11.37;;;16.20;1.00;;;;;;5013688;28;20472;-51
2023/06/16 04:47:45;;;;;;;22.13;14.40;;;16.20;1.00;;;;;;5014001;28;20412;-52
2023/06/16 04:50:12;;;;;;;18.33;16.00;;;16.20;1.00;;;;;;5013908;28;20502;-52
2023/06/16 04:52:38;;;;;;;22.97;14.20;;;16.20;1.00;;;;;;5013528;28;20468;-51
2023/06/16 04:55:05;;;;;;;16.63;11.83;;;16.20;1.00;;;;;;5014015;28;20428;-51
2023/06/16 04:57:31;;;;;;;24.70;14.27;;;16.30;1.00;;;;;;5013367;28;20914;-51
2023/06/16 04:59:58;;;;;;;17.93;13.40;;;16.40;1.00;;;;;;5013490;28;20907;-51
2023/06/16 05:02:23;;;;;;;17.30;12.47;;;16.50;1.00;;;;;;5013690;28;20467;-51
2023/06/16 05:04:50;;;;;;;18.37;15.10;;;16.70;1.00;;;;;;5013335;28;20556;-51
2023/06/16 05:07:15;;;;;;;21.17;16.30;;;16.80;1.00;;;;;;5014497;28;20194;-52
2023/06/16 05:09:41;;;;;;;21.07;14.37;;;17.00;1.00;;;;;;5020262;28;20766;-52
2023/06/16 05:12:07;;;;;;;23.03;15.00;;;17.20;1.00;;;;;;5020573;28;20553;-51
2023/06/16 05:14:33;;;;;;;21.50;14.80;;;17.50;1.00;;;;;;5020060;28;20437;-50
2023/06/16 05:16:59;;;;;;;21.40;13.10;;;17.70;1.00;;;;;;5020365;28;20947;-50
2023/06/16 05:19:25;;;;;;;23.43;16.43;;;18.00;1.00;;;;;;5020377;28;20190;-51
2023/06/16 05:21:50;;;;;;;20.17;14.23;;;18.20;1.00;;;;;;5020495;28;20595;-51
2023/06/16 05:24:16;;;;;;;17.93;14.30;;;18.40;1.00;;;;;;5019893;28;20220;-50
2023/06/16 05:26:41;;;;;;;23.23;14.50;;;18.80;1.00;;;;;;5020007;28;20179;-50
2023/06/16 05:29:07;;;;;;;14.40;12.70;;;18.90;1.00;;;;;;5020332;28;20182;-51
2023/06/16 05:31:35;;;;;;;17.40;14.20;;;19.00;1.00;;;;;;5020229;28;20631;-51
2023/06/16 05:34:01;;;;;;;14.07;12.13;;;19.00;1.00;;;;;;5020217;28;20813;-51
2023/06/16 05:36:29;;;;;;;14.67;11.83;;;19.00;1.00;;;;;;5019669;28;20434;-51
2023/06/16 05:38:55;;;;;;;19.30;12.37;;;19.00;1.00;;;;;;5019672;28;20959;-51
2023/06/16 05:41:24;;;;;;;11.83;9.60;;;19.00;1.00;;;;;;5020035;28;20453;-51
2023/06/16 05:43:51;;;;;;;16.30;9.87;;;19.00;1.00;;;;;;5019456;28;20469;-50
2023/06/16 05:46:16;;;;;;;21.90;14.17;;;19.10;1.00;;;;;;5020029;28;20415;-50
2023/06/16 05:48:42;;;;;;;14.47;11.97;;;19.10;1.00;;;;;;5019523;28;20430;-50
2023/06/16 05:51:08;;;;;;;27.03;12.20;;;19.20;1.00;;;;;;5019684;28;20217;-50
2023/06/16 05:53:33;;;;;;;13.90;10.60;;;19.20;1.00;;;;;;5019415;28;20254;-50
2023/06/16 05:55:59;;;;;;;14.53;11.93;;;19.40;1.00;;;;;;5019512;28;20186;-50
2023/06/16 05:58:25;;;;;;;14.60;11.77;;;19.90;1.00;;;;;;5019724;28;20238;-50
2023/06/16 06:00:50;;;;;;;20.00;12.60;;;20.30;1.00;;;;;;5019312;28;20175;-51
2023/06/16 06:03:16;;;;;;;16.73;12.30;;;20.60;1.00;;;;;;5019660;28;20642;-50
2023/06/16 06:05:41;;;;;;;12.90;11.40;;;20.40;1.00;;;;;;5019642;28;20587;-51
2023/06/16 06:08:07;;;;;;;13.00;10.70;;;20.30;1.00;;;;;;5019746;28;20183;-51
2023/06/16 06:10:33;;;;;;;13.80;11.30;;;20.30;1.00;;;;;;5019938;28;20213;-50
2023/06/16 06:13:05;;;;;;;15.30;11.30;;;20.30;1.00;;;;;;5019496;28;20742;-50
2023/06/16 06:15:31;;;;;;;14.53;12.60;;;20.40;1.00;;;;;;5019288;28;20620;-51
2023/06/16 06:17:57;;;;;;;15.73;11.27;;;20.30;1.00;;;;;;5019464;28;20422;-50
2023/06/16 06:20:22;;;;;;;18.83;13.17;;;20.20;1.00;;;;;;5016039;28;20183;-50
2023/06/16 06:22:48;;;;;;;14.20;12.37;;;20.00;1.00;;;;;;5016065;28;20229;-50
2023/06/16 06:25:14;;;;;;;18.00;13.33;;;19.90;1.00;;;;;;5016500;28;20244;-50
2023/06/16 06:27:40;;;;;;;13.37;11.97;;;19.90;1.00;;;;;;5016503;28;20706;-50
2023/06/16 06:30:06;;;;;;;16.27;11.47;;;19.80;1.00;;;;;;5016476;28;20198;-50
2023/06/16 06:32:32;;;;;;;13.83;12.20;;;19.90;1.00;;;;;;5015869;28;20910;-51
2023/06/16 06:34:57;;;;;;;16.43;12.50;;;19.90;1.00;;;;;;5016293;28;20484;-49
2023/06/16 06:37:29;;;;;;;12.43;11.13;;;20.00;1.00;;;;;;5016179;28;20275;-50
2023/06/16 06:39:55;;;;;;;12.73;11.07;;;20.40;1.00;;;;;;5016411;28;20187;-50
2023/06/16 06:42:21;;;;;;;12.47;10.30;;;20.70;1.00;;;;;;5015982;28;20423;-48
2023/06/16 06:44:47;;;;;;;17.40;11.17;;;21.10;1.00;;;;;;5015909;28;20467;-49
2023/06/16 06:47:12;;;;;;;12.23;10.40;;;21.60;1.00;;;;;;5015915;28;20419;-48
2023/06/16 06:49:38;;;;;;;15.73;10.13;;;21.80;1.00;;;;;;5015575;28;20184;-49
2023/06/16 06:52:04;;;;;;;11.50;10.40;;;21.90;99.90;;;;;;5015226;28;20604;-48
2023/06/16 06:54:29;;;;;;;14.30;10.53;;;22.10;99.90;;;;;;5015915;28;20268;-49
2023/06/16 06:56:55;;;;;;;13.90;10.43;;;22.20;99.90;;;;;;5015953;28;20832;-49
2023/06/16 06:59:21;;;;;;;17.63;11.20;;;22.10;99.90;;;;;;5015634;28;20180;-49
2023/06/16 07:01:46;;;;;;;16.33;10.97;;;22.40;99.90;;;;;;5015637;28;20175;-49
2023/06/16 07:04:12;;;;;;;16.93;10.40;;;22.50;99.90;;;;;;5015867;28;20212;-49
2023/06/16 07:06:37;;;;;;;12.80;9.70;;;22.60;99.90;;;;;;5015776;28;20185;-48
2023/06/16 07:09:03;;;;;;;12.13;9.37;;;22.40;99.90;;;;;;5015089;28;20643;-50
2023/06/16 07:11:29;;;;;;;10.60;9.50;;;22.50;99.90;;;;;;5015617;28;20188;-50
2023/06/16 07:13:54;;;;;;;11.53;8.37;;;22.60;99.90;;;;;;5015830;28;20188;-50
2023/06/16 07:16:20;;;;;;;9.87;8.97;;;22.40;99.90;;;;;;5015537;28;20540;-49
2023/06/16 07:18:46;;;;;;;12.27;8.60;;;22.20;99.90;;;;;;5015361;28;20191;-48
2023/06/16 07:21:11;;;;;;;11.60;8.93;;;21.90;99.90;;;;;;5015327;28;20181;-49
2023/06/16 07:23:37;;;;;;;11.93;9.17;;;21.90;99.90;;;;;;5015058;28;20213;-50
2023/06/16 07:26:02;;;;;;;13.13;9.67;;;21.60;99.90;;;;;;5015199;28;20185;-50
2023/06/16 07:28:28;;;;;;;13.77;9.10;;;21.50;99.90;;;;;;5015194;28;20215;-50
2023/06/16 07:30:54;;;;;;;15.53;10.47;;;21.60;99.90;;;;;;5015198;28;20186;-50
2023/06/16 07:33:21;;;;;;;12.63;9.93;;;21.80;99.90;;;;;;5015283;28;20193;-50
2023/06/16 07:35:47;;;;;;;16.40;11.93;;;21.80;99.90;;;;;;5014999;28;20512;-49
2023/06/16 07:38:13;;;;;;;13.03;10.40;;;22.10;99.90;;;;;;5015107;28;20430;-50
2023/06/16 07:40:38;;;;;;;15.80;11.70;;;22.00;1.00;;;;;;5015362;28;20503;-50
2023/06/16 07:43:04;;;;;;;13.80;11.00;;;21.90;99.90;;;;;;5015288;28;20223;-49
2023/06/16 07:45:33;;;;;;;16.70;11.67;;;21.80;99.90;;;;;;5014487;28;20226;-50
2023/06/16 07:48:00;;;;;;;21.73;12.60;;;22.00;99.90;;;;;;5014545;28;20433;-50
2023/06/16 07:50:25;;;;;;;15.93;11.83;;;22.30;99.90;;;;;;5014799;28;20507;-50
2023/06/16 07:52:51;;;;;;;15.97;12.83;;;22.30;99.90;;;;;;5014454;28;20499;-50
2023/06/16 07:55:17;;;;;;;15.40;13.03;;;22.40;99.90;;;;;;5014730;28;20544;-50
2023/06/16 07:57:42;;;;;;;13.77;12.30;;;22.80;99.90;;;;;;5015000;28;20270;-50
2023/06/16 08:00:11;;;;;;;13.57;11.83;;;23.30;99.90;;;;;;5014844;28;20621;-50
2023/06/16 08:02:38;;;;;;;18.13;12.80;;;23.70;99.90;;;;;;5014527;28;20199;-49
2023/06/16 08:05:04;;;;;;;13.00;11.30;;;23.40;99.90;;;;;;5014522;28;20459;-50
2023/06/16 08:07:30;;;;;;;14.80;10.10;;;22.70;99.90;;;;;;5014613;28;20417;-50
2023/06/16 08:09:55;;;;;;;12.90;11.50;;;22.20;99.90;;;;;;5014694;28;20545;-50
2023/06/16 08:12:21;;;;;;;17.80;13.23;;;22.30;99.90;;;;;;5014367;28;20653;-50
2023/06/16 08:14:46;;;;;;;15.17;12.27;;;22.30;99.90;;;;;;5014499;28;20206;-50
2023/06/16 08:17:12;;;;;;;15.13;11.63;;;22.20;99.90;;;;;;5014563;28;20188;-50
2023/06/16 08:19:37;;;;;;;14.17;9.67;;;22.10;99.90;;;;;;5014402;28;20633;-49
2023/06/16 08:22:04;;;;;;;11.50;10.30;;;22.20;99.90;;;;;;5014359;28;20276;-50
2023/06/16 08:24:30;;;;;;;12.93;10.27;;;22.10;99.90;;;;;;5014343;28;20213;-50
2023/06/16 08:26:56;;;;;;;12.17;10.90;;;22.00;99.90;;;;;;5014094;28;20514;-50
2023/06/16 08:29:22;;;;;;;12.73;10.90;;;22.10;99.90;;;;;;5014436;28;20193;-50
2023/06/16 08:31:48;;;;;;;12.73;11.43;;;22.30;99.90;;;;;;5014038;28;20422;-50
2023/06/16 08:34:14;;;;;;;14.80;10.67;;;22.50;99.90;;;;;;5013879;28;20697;-50
2023/06/16 08:36:40;;;;;;;21.50;12.53;;;22.70;99.90;;;;;;5014269;28;20429;-50
2023/06/16 08:39:07;;;;;;;15.83;12.23;;;22.90;99.90;;;;;;5014105;28;20821;-50
2023/06/16 08:41:36;;;;;;;14.57;11.10;;;23.00;99.90;;;;;;5013887;28;20230;-50
2023/06/16 08:44:03;;;;;;;13.13;10.70;;;23.00;99.90;;;;;;5013725;28;20814;-49
2023/06/16 08:46:29;;;;;;;12.10;10.70;;;22.90;99.90;;;;;;5014087;28;20423;-50
2023/06/16 08:48:55;;;;;;;11.87;10.27;;;23.00;99.90;;;;;;5013821;28;20416;-50
2023/06/16 08:51:24;;;;;;;16.00;10.53;;;23.00;99.90;;;;;;5014053;28;20556;-50
2023/06/16 08:53:54;;;;;;;15.50;11.63;;;23.00;99.90;;;;;;5014114;28;20238;-50
2023/06/16 08:56:20;;;;;;;15.47;9.80;;;22.80;99.90;;;;;;5014318;28;20413;-50
2023/06/16 08:58:47;;;;;;;11.50;10.17;;;22.60;99.90;;;;;;5013756;28;20503;-50
2023/06/16 09:01:14;;;;;;;16.17;10.20;;;22.50;99.90;;;;;;5013993;28;20414;-49
2023/06/16 09:03:41;;;;;;;14.60;10.37;;;22.30;99.90;;;;;;5014097;28;20508;-49
2023/06/16 09:06:10;;;;;;;11.63;9.40;;;22.20;99.90;;;;;;5013811;28;20423;-50
2023/06/16 09:08:36;;;;;;;19.30;10.53;;;22.20;99.90;;;;;;5013720;28;20421;-50
2023/06/16 09:11:07;;;;;;;15.03;10.63;;;22.10;99.90;;;;;;5013527;28;20827;-50
2023/06/16 09:13:32;;;;;;;11.60;10.20;;;22.20;99.90;;;;;;5013841;28;20433;-50
2023/06/16 09:15:59;;;;;;;11.53;10.20;;;22.20;99.90;;;;;;5013671;28;20416;-50
2023/06/16 09:18:37;;;;;;;18.67;10.80;;;22.30;99.90;;;;;;5013701;28;20649;-50
2023/06/16 09:21:06;;;;;;;11.43;10.27;;;22.20;99.90;;;;;;5012877;28;20412;-50
2023/06/16 09:23:32;;;;;;;12.63;9.57;;;22.00;99.90;;;;;;5013353;28;20465;-50
2023/06/16 09:25:58;;;;;;;14.07;10.77;;;21.90;99.90;;;;;;5013274;28;20426;-50
2023/06/16 09:28:34;;;;;;;15.63;10.50;;;21.80;99.90;;;;;;5013416;28;20427;-50
2023/06/16 09:31:02;;;;;;;13.80;11.20;;;21.60;99.90;;;;;;5013865;28;20481;-50
2023/06/16 09:33:29;;;;;;;15.37;9.97;;;21.30;99.90;;;;;;5013251;28;20418;-50
2023/06/16 09:35:55;;;;;;;13.13;9.63;;;21.20;1.00;;;;;;5013274;28;20424;-50
2023/06/16 09:38:20;;;;;;;14.43;11.60;;;21.20;99.90;;;;;;5013408;28;20445;-50
2023/06/16 09:40:46;;;;;;;13.83;10.33;;;21.00;99.90;;;;;;5013125;28;20194;-50
2023/06/16 09:43:12;;;;;;;19.00;12.40;;;20.90;1.00;;;;;;5013382;28;20184;-49
2023/06/16 09:45:37;;;;;;;12.23;10.40;;;20.90;99.90;;;;;;5012755;28;20342;-49
2023/06/16 09:48:05;;;;;;;19.43;10.93;;;20.80;99.90;;;;;;5013191;28;20215;-50
2023/06/16 09:50:31;;;;;;;18.83;11.07;;;20.80;1.00;;;;;;5012994;28;20194;-49
2023/06/16 09:52:58;;;;;;;17.50;14.30;;;20.90;1.00;;;;;;5013048;28;20474;-49
2023/06/16 09:55:28;;;;;;;25.20;13.60;;;21.10;1.00;;;;;;5015053;28;20427;-49
2023/06/16 09:57:55;;;;;;;13.57;10.57;;;21.40;1.00;;;;;;5017241;28;20428;-49
2023/06/16 10:00:21;;;;;;;9.80;8.80;;;21.90;1.00;;;;;;5017355;28;20422;-49
2023/06/16 10:02:48;;;;;;;15.43;8.83;;;22.20;99.90;;;;;;5016675;28;20439;-49
2023/06/16 10:05:17;;;;;;;14.77;9.30;;;22.50;99.90;;;;;;5016932;28;20214;-49
2023/06/16 10:07:46;;;;;;;9.27;8.37;;;22.80;99.90;;;;;;5016305;28;20419;-49
2023/06/16 10:10:12;;;;;;;12.27;8.70;;;23.00;99.90;;;;;;5016455;28;20503;-49
2023/06/16 10:12:46;;;;;;;13.63;8.63;;;23.00;99.90;;;;;;5016759;28;20425;-49
2023/06/16 10:15:17;;;;;;;11.70;9.20;;;23.30;99.90;;;;;;5016754;28;20423;-50
2023/06/16 10:17:45;;;;;;;11.73;8.63;;;23.30;99.90;;;;;;5016202;28;20468;-50
2023/06/16 10:20:13;;;;;;;13.87;8.50;;;23.20;99.90;;;;;;5016729;28;20412;-49
2023/06/16 10:22:39;;;;;;;16.63;9.80;;;23.10;99.90;;;;;;5016524;28;20428;-49
2023/06/16 10:25:06;;;;;;;13.70;9.43;;;23.00;99.90;;;;;;5016763;28;20471;-49
2023/06/16 10:27:33;;;;;;;12.50;9.70;;;22.90;99.90;;;;;;5016466;28;20447;-49
2023/06/16 10:30:01;;;;;;;10.00;9.00;;;22.90;99.90;;;;;;5016303;28;20427;-49
2023/06/16 10:32:26;;;;;;;14.73;8.95;;;22.80;99.90;;;;;;5015294;28;20486;-50
2023/06/16 10:34:56;;;;;;;12.83;10.20;;;22.70;99.90;;;;;;5015794;28;20238;-49
2023/06/16 10:37:24;;;;;;;11.70;10.10;;;22.20;99.90;;;;;;5016420;28;20204;-50
2023/06/16 10:39:55;;;;;;;15.20;10.03;;;21.80;99.90;;;;;;5016196;28;20414;-50
2023/06/16 10:42:21;;;;;;;12.70;10.10;;;21.40;99.90;;;;;;5016059;28;20413;-50
2023/06/16 10:44:46;;;;;;;10.10;9.10;;;21.10;99.90;;;;;;5016361;28;20482;-50
2023/06/16 10:47:12;;;;;;;10.80;9.53;;;21.10;1.00;;;;;;5016095;28;20652;-50
2023/06/16 10:49:50;;;;;;;14.00;10.50;;;21.20;1.00;;;;;;5016035;28;20192;-49
2023/06/16 10:52:33;;;;;;;10.00;8.40;;;21.20;1.00;;;;;;5015618;28;20247;-49
2023/06/16 10:55:25;;;;;;;10.40;8.90;;;21.30;1.00;;;;;;5016212;28;20434;-50
2023/06/16 10:58:13;;;;;;;12.23;8.40;;;21.50;1.00;;;;;;5015508;28;20483;-49
2023/06/16 11:00:44;;;;;;;10.23;8.10;;;21.70;1.00;;;;;;5015494;28;20461;-49
2023/06/16 11:03:10;;;;;;;14.57;10.70;;;21.90;1.00;;;;;;5015608;28;20704;-49
2023/06/16 11:05:42;;;;;;;11.90;9.43;;;22.10;1.00;;;;;;5015093;28;20474;-49
2023/06/16 11:08:15;;;;;;;12.27;9.00;;;22.40;1.00;;;;;;5015207;28;20188;-49
2023/06/16 11:10:54;;;;;;;11.07;8.73;;;22.80;99.90;;;;;;5015575;28;20445;-49
2023/06/16 11:13:25;;;;;;;12.70;8.80;;;22.90;99.90;;;;;;5015715;28;20466;-49
2023/06/16 11:15:53;;;;;;;14.80;9.23;;;22.90;99.90;;;;;;5015439;28;20432;-49
2023/06/16 11:18:24;;;;;;;9.87;8.87;;;22.70;99.90;;;;;;5015209;28;20420;-49
2023/06/16 11:20:54;;;;;;;13.37;9.30;;;22.70;99.90;;;;;;5015374;28;20415;-49
2023/06/16 11:23:20;;;;;;;20.70;10.83;;;22.70;99.90;;;;;;5015092;28;20429;-51
2023/06/16 11:25:46;;;;;;;13.27;9.77;;;22.70;99.90;;;;;;5013115;28;20428;-51
2023/06/16 11:28:11;;;;;;;16.03;9.17;;;22.60;99.90;;;;;;5015045;28;20939;-52
2023/06/16 11:30:37;;;;;;;10.97;8.90;;;22.60;99.90;;;;;;5014973;28;20257;-52
2023/06/16 11:33:03;;;;;;;18.73;8.60;;;22.60;99.90;;;;;;5015329;28;20273;-51
2023/06/16 11:35:30;;;;;;;18.17;9.67;;;22.50;99.90;;;;;;5014846;28;20182;-53
2023/06/16 11:37:56;;;;;;;10.87;8.20;;;22.40;99.90;;;;;;5015202;28;20182;-52
2023/06/16 11:40:23;;;;;;;11.10;9.43;;;22.10;99.90;;;;;;5015087;28;20929;-53
2023/06/16 11:42:55;;;;;;;11.50;9.53;;;21.80;99.90;;;;;;5014560;28;20217;-50
2023/06/16 11:45:48;;;;;;;14.43;9.97;;;21.70;1.00;;;;;;5015105;28;20458;-51
2023/06/16 11:48:14;;;;;;;16.97;9.53;;;21.70;1.00;;;;;;5013063;28;20474;-50
2023/06/16 11:50:40;;;;;;;11.23;8.87;;;21.60;1.00;;;;;;5015227;28;20806;-51
2023/06/16 11:53:05;;;;;;;12.50;8.43;;;21.80;1.00;;;;;;5014456;28;20242;-50
2023/06/16 11:55:31;;;;;;;13.17;9.23;;;21.80;1.00;;;;;;5014987;28;20436;-51
2023/06/16 11:57:57;;;;;;;12.30;9.37;;;21.80;1.00;;;;;;5014951;28;20194;-51
2023/06/16 12:00:23;;;;;;;15.87;8.83;;;21.70;1.00;;;;;;5014484;28;20414;-51
2023/06/16 12:02:50;;;;;;;18.67;9.13;;;21.70;1.00;;;;;;5014941;28;20222;-50
2023/06/16 12:05:22;;;;;;;12.43;8.80;;;21.70;1.00;;;;;;5014747;28;20216;-50
2023/06/16 12:07:48;;;;;;;24.47;9.70;;;21.60;1.00;;;;;;5014666;28;20418;-51
2023/06/16 12:10:15;;;;;;;10.50;9.30;;;21.40;1.00;;;;;;5014676;28;20440;-52
2023/06/16 12:12:42;;;;;;;10.73;9.60;;;21.20;1.00;;;;;;5014866;28;20427;-52
2023/06/16 12:15:08;;;;;;;13.43;11.23;;;20.90;1.00;;;;;;5014576;28;20787;-52
2023/06/16 12:17:34;;;;;;;11.83;10.63;;;20.60;1.00;;;;;;5013863;28;20414;-51
2023/06/16 12:20:05;;;;;;;11.07;9.97;;;20.50;1.00;;;;;;5014438;28;20422;-50
2023/06/16 12:22:41;;;;;;;16.50;11.90;;;20.50;1.00;;;;;;5014634;28;20537;-52
2023/06/16 12:25:14;;;;;;;17.10;12.20;;;20.30;1.00;;;;;;5014480;28;20464;-51
2023/06/16 12:27:51;;;;;;;17.70;12.60;;;20.30;1.00;;;;;;5014490;28;20427;-51
2023/06/16 12:30:18;;;;;;;14.20;12.20;;;20.30;1.00;;;;;;5013936;28;20405;-50
2023/06/16 12:32:45;;;;;;;16.57;11.50;;;20.30;1.00;;;;;;5014221;28;20455;-50
2023/06/16 12:35:11;;;;;;;18.20;12.70;;;20.40;1.00;;;;;;5012643;28;20443;-50
2023/06/16 12:37:40;;;;;;;15.43;11.40;;;20.40;1.00;;;;;;5012576;28;20422;-51
2023/06/16 12:40:10;;;;;;;16.30;12.00;;;20.30;1.00;;;;;;5028620;28;20183;-53
2023/06/16 12:42:36;;;;;;;14.83;11.23;;;20.30;1.00;;;;;;5014263;28;20417;-50